Omskiy-141 — UGZK — position and weather

sailwx.info

Track history (hours):
 
Tides and Currents Weather Stations Pressure Air Temp Water Temp Dewpoint Dewpoint Depression Visibility Wind Speed Wind Dir Waves Ship Positions

Omskiy-141

Last reported at 2014-Oct-01 07:33 UTC. Time now 2014-Oct-01 08:19 UTC.
Position N 53°34' E 014°34'.

Length 108 m; draft 2.6 m.

Type: Cargo ship. MMSI: 273310600.

Date/timePositionNaut miles runAvg speedWind from/ knotsBaromVisibWave heightAir tempDewpointWater temp
2014-Oct-01 07:33N 53°34' E 014°34'0 0.0
2014-Oct-01 06:21N 53°34' E 014°34'0 0.0
2014-Oct-01 05:30N 53°34' E 014°34'0 0.0
2014-Oct-01 04:30N 53°34' E 014°34'0 0.0
2014-Oct-01 03:33N 53°34' E 014°34'0 0.0
2014-Oct-01 02:33N 53°34' E 014°34'0 0.0
2014-Oct-01 01:33N 53°34' E 014°34'0 0.0
2014-Oct-01 00:33N 53°34' E 014°34'0 0.0
2014-Sep-30 23:33N 53°34' E 014°34'0 0.0
2014-Sep-30 22:33N 53°34' E 014°34'0 0.0
2014-Sep-30 21:33N 53°34' E 014°34'0 0.0
2014-Sep-30 20:33N 53°34' E 014°34'0 0.0
2014-Sep-30 19:33N 53°34' E 014°34'0 0.0
2014-Sep-30 18:33N 53°34' E 014°34'0 0.0
2014-Sep-30 17:33N 53°34' E 014°34'0 0.0
2014-Sep-30 16:33N 53°34' E 014°34'0 0.0
2014-Sep-30 15:33N 53°34' E 014°34'0 0.0
2014-Sep-30 14:33N 53°34' E 014°34'0 0.0
2014-Sep-30 13:33N 53°34' E 014°34'0 0.0
2014-Sep-30 12:33N 53°34' E 014°34'0 0.0
2014-Sep-30 11:33N 53°34' E 014°34'0 0.0
2014-Sep-30 10:33N 53°34' E 014°34'0 0.0
2014-Sep-30 09:33N 53°34' E 014°34'0 0.0
2014-Sep-30 08:27N 53°34' E 014°34'0 0.0
2014-Sep-30 07:33N 53°34' E 014°34'0 0.0
2014-Sep-30 06:33N 53°34' E 014°34'0 0.0
2014-Sep-30 05:33N 53°34' E 014°34'0 0.0
2014-Sep-30 04:33N 53°34' E 014°34'0 0.0
2014-Sep-30 03:33N 53°34' E 014°34'0 0.0
2014-Sep-30 02:33N 53°34' E 014°34'0 0.0
2014-Sep-30 01:33N 53°34' E 014°34'0 0.0
2014-Sep-30 00:33N 53°34' E 014°34'0 0.0
2014-Sep-29 23:33N 53°34' E 014°34'0 0.0
2014-Sep-29 22:33N 53°34' E 014°34'0 0.0
2014-Sep-29 21:33N 53°34' E 014°34'0 0.0
2014-Sep-29 20:33N 53°34' E 014°34'1 0.9
2014-Sep-29 19:31N 53°35' E 014°35'7 7.2
2014-Sep-29 18:33N 53°41' E 014°30'9 8.6
2014-Sep-29 17:33N 53°48' E 014°21'7 7.4
2014-Sep-29 16:33N 53°55' E 014°16'5 4.6
2014-Sep-29 15:33N 53°59' E 014°15'9 8.1
2014-Sep-29 14:29N 54°05' E 014°26'9 8.5
2014-Sep-29 13:26N 54°10' E 014°38'8 8.4
2014-Sep-29 12:31N 54°15' E 014°49'8 8.4
2014-Sep-29 11:33N 54°20' E 014°59'9 8.4
2014-Sep-29 10:31N 54°26' E 015°10'8 8.4
2014-Sep-29 09:33N 54°31' E 015°21'8 8.5
2014-Sep-29 08:33N 54°37' E 015°32'11 8.4
2014-Sep-29 07:14N 54°44' E 015°46'6 8.4
2014-Sep-29 06:31N 54°48' E 015°53'100 7.5
2014-Sep-28 17:09N 55°54' E 018°06'31 6.4
2014-Sep-28 12:19N 56°14' E 018°49'  
2014-Sep-23 08:11N 59°60' E 026°21'4 7.1
2014-Sep-23 07:33N 60°01' E 026°29'6 6.3
2014-Sep-23 06:32N 60°01' E 026°42'9 6.8
2014-Sep-23 05:17N 59°60' E 026°59'94 7.3
2014-Sep-22 16:21N 59°56' E 030°08'4 0.3
2014-Sep-22 04:29N 59°55' E 030°14'0 0.0
2014-Sep-22 03:29N 59°55' E 030°14'0 0.1
2014-Sep-22 00:11N 59°55' E 030°15'5 7.7
2014-Sep-21 23:33N 59°57' E 030°23'  
Track history (hours):
 
Tides and Currents Weather Stations Pressure Air Temp Water Temp Dewpoint Dewpoint Depression Visibility Wind Speed Wind Dir Waves Ship Positions

Omskiy-141

Last reported at 2014-Oct-01 07:33 UTC. Time now 2014-Oct-01 08:19 UTC.
Position N 53°34' E 014°34'.

Length 108 m; draft 2.6 m.

Type: Cargo ship. MMSI: 273310600.

Date/timePositionNaut miles runAvg speedWind from/ knotsBaromVisibWave heightAir tempDewpointWater temp
2014-Oct-01 07:33N 53°34' E 014°34'0 0.0
2014-Oct-01 06:21N 53°34' E 014°34'0 0.0
2014-Oct-01 05:30N 53°34' E 014°34'0 0.0
2014-Oct-01 04:30N 53°34' E 014°34'0 0.0
2014-Oct-01 03:33N 53°34' E 014°34'0 0.0
2014-Oct-01 02:33N 53°34' E 014°34'0 0.0
2014-Oct-01 01:33N 53°34' E 014°34'0 0.0
2014-Oct-01 00:33N 53°34' E 014°34'0 0.0
2014-Sep-30 23:33N 53°34' E 014°34'0 0.0
2014-Sep-30 22:33N 53°34' E 014°34'0 0.0
2014-Sep-30 21:33N 53°34' E 014°34'0 0.0
2014-Sep-30 20:33N 53°34' E 014°34'0 0.0
2014-Sep-30 19:33N 53°34' E 014°34'0 0.0
2014-Sep-30 18:33N 53°34' E 014°34'0 0.0
2014-Sep-30 17:33N 53°34' E 014°34'0 0.0
2014-Sep-30 16:33N 53°34' E 014°34'0 0.0
2014-Sep-30 15:33N 53°34' E 014°34'0 0.0
2014-Sep-30 14:33N 53°34' E 014°34'0 0.0
2014-Sep-30 13:33N 53°34' E 014°34'0 0.0
2014-Sep-30 12:33N 53°34' E 014°34'0 0.0
2014-Sep-30 11:33N 53°34' E 014°34'0 0.0
2014-Sep-30 10:33N 53°34' E 014°34'0 0.0
2014-Sep-30 09:33N 53°34' E 014°34'0 0.0
2014-Sep-30 08:27N 53°34' E 014°34'0 0.0
2014-Sep-30 07:33N 53°34' E 014°34'0 0.0
2014-Sep-30 06:33N 53°34' E 014°34'0 0.0
2014-Sep-30 05:33N 53°34' E 014°34'0 0.0
2014-Sep-30 04:33N 53°34' E 014°34'0 0.0
2014-Sep-30 03:33N 53°34' E 014°34'0 0.0
2014-Sep-30 02:33N 53°34' E 014°34'0 0.0
2014-Sep-30 01:33N 53°34' E 014°34'0 0.0
2014-Sep-30 00:33N 53°34' E 014°34'0 0.0
2014-Sep-29 23:33N 53°34' E 014°34'0 0.0
2014-Sep-29 22:33N 53°34' E 014°34'0 0.0
2014-Sep-29 21:33N 53°34' E 014°34'0 0.0
2014-Sep-29 20:33N 53°34' E 014°34'1 0.9
2014-Sep-29 19:31N 53°35' E 014°35'7 7.2
2014-Sep-29 18:33N 53°41' E 014°30'9 8.6
2014-Sep-29 17:33N 53°48' E 014°21'7 7.4
2014-Sep-29 16:33N 53°55' E 014°16'5 4.6
2014-Sep-29 15:33N 53°59' E 014°15'9 8.1
2014-Sep-29 14:29N 54°05' E 014°26'9 8.5
2014-Sep-29 13:26N 54°10' E 014°38'8 8.4
2014-Sep-29 12:31N 54°15' E 014°49'8 8.4
2014-Sep-29 11:33N 54°20' E 014°59'9 8.4
2014-Sep-29 10:31N 54°26' E 015°10'8 8.4
2014-Sep-29 09:33N 54°31' E 015°21'8 8.5
2014-Sep-29 08:33N 54°37' E 015°32'11 8.4
2014-Sep-29 07:14N 54°44' E 015°46'6 8.4
2014-Sep-29 06:31N 54°48' E 015°53'100 7.5
2014-Sep-28 17:09N 55°54' E 018°06'31 6.4
2014-Sep-28 12:19N 56°14' E 018°49'  
2014-Sep-23 08:11N 59°60' E 026°21'4 7.1
2014-Sep-23 07:33N 60°01' E 026°29'6 6.3
2014-Sep-23 06:32N 60°01' E 026°42'9 6.8
2014-Sep-23 05:17N 59°60' E 026°59'94 7.3
2014-Sep-22 16:21N 59°56' E 030°08'4 0.3
2014-Sep-22 04:29N 59°55' E 030°14'0 0.0
2014-Sep-22 03:29N 59°55' E 030°14'0 0.1
2014-Sep-22 00:11N 59°55' E 030°15'5 7.7
2014-Sep-21 23:33N 59°57' E 030°23'  

Dump ship's entire track history